Time;durP1;ratioP1;P1;durP2;ratioP2;P2;SDS_P1;SDS_P2;PMS_P1;PMS_P2;Temp;Humidity;BMP_temperature;BMP_pressure;BME280_temperature;BME280_humidity;BME280_pressure;Samples;Min_cycle;Max_cycle;Signal;HPM_P1;HPM_P2
2022/07/07 00:01:21;;;;;;;6.97;3.90;;;14.60;99.90;;;;;;5035059;28;20588;-81
2022/07/07 00:03:48;;;;;;;3.87;3.40;;;14.60;99.90;;;;;;5019842;28;20225;-81
2022/07/07 00:06:15;;;;;;;4.03;3.60;;;14.50;99.90;;;;;;5032649;28;20271;-81
2022/07/07 00:08:42;;;;;;;4.37;3.73;;;14.50;99.90;;;;;;5034880;28;20200;-80
2022/07/07 00:11:09;;;;;;;5.30;3.50;;;14.50;99.90;;;;;;5033572;28;20208;-81
2022/07/07 00:13:37;;;;;;;5.73;3.80;;;14.60;99.90;;;;;;5028742;28;20211;-81
2022/07/07 00:16:04;;;;;;;4.27;3.60;;;14.60;99.90;;;;;;5031501;28;20483;-81
2022/07/07 00:18:31;;;;;;;4.03;3.40;;;14.50;99.90;;;;;;5036045;28;20672;-81
2022/07/07 00:20:58;;;;;;;4.10;3.63;;;14.50;99.90;;;;;;5026765;28;20719;-81
2022/07/07 00:23:25;;;;;;;4.37;3.60;;;14.50;99.90;;;;;;5039786;28;20218;-81
2022/07/07 00:25:52;;;;;;;3.73;3.43;;;14.50;99.90;;;;;;5041896;28;20200;-81
2022/07/07 00:28:19;;;;;;;3.70;3.23;;;14.50;99.90;;;;;;5033839;28;20677;-81
2022/07/07 00:30:47;;;;;;;4.53;3.23;;;14.50;99.90;;;;;;5022469;28;20226;-80
2022/07/07 00:33:14;;;;;;;3.77;3.50;;;14.40;99.90;;;;;;5038943;28;20258;-79
2022/07/07 00:35:41;;;;;;;4.10;3.27;;;14.40;99.90;;;;;;5029074;28;20734;-81
2022/07/07 00:38:08;;;;;;;3.70;3.40;;;14.40;99.90;;;;;;5038643;28;20199;-81
2022/07/07 00:40:36;;;;;;;4.00;3.70;;;14.40;99.90;;;;;;5032292;28;20211;-81
2022/07/07 00:43:03;;;;;;;3.70;3.33;;;14.40;99.90;;;;;;5038105;28;20220;-80
2022/07/07 00:45:30;;;;;;;3.70;3.40;;;14.40;99.90;;;;;;5024362;28;20202;-81
2022/07/07 00:47:59;;;;;;;4.77;3.90;;;14.40;99.90;;;;;;5038808;28;20287;-81
2022/07/07 00:50:26;;;;;;;5.07;3.40;;;14.30;99.90;;;;;;5023311;28;20231;-81
2022/07/07 00:52:54;;;;;;;5.30;3.47;;;14.30;99.90;;;;;;5038091;28;20262;-81
2022/07/07 00:55:21;;;;;;;4.50;3.50;;;14.30;99.90;;;;;;5038330;28;20288;-81
2022/07/07 00:57:48;;;;;;;3.93;3.60;;;14.30;99.90;;;;;;5039071;28;20715;-81
2022/07/07 01:00:16;;;;;;;4.47;3.40;;;14.30;99.90;;;;;;5038455;28;20195;-81
2022/07/07 01:02:43;;;;;;;3.37;2.60;;;14.30;99.90;;;;;;5035232;28;20248;-81
2022/07/07 01:05:12;;;;;;;3.97;2.67;;;14.30;99.90;;;;;;5033011;28;20196;-81
2022/07/07 01:07:39;;;;;;;3.50;2.87;;;14.20;99.90;;;;;;5035098;28;20199;-81
2022/07/07 01:10:08;;;;;;;4.73;2.90;;;14.10;99.90;;;;;;5036437;28;20196;-81
2022/07/07 01:12:36;;;;;;;4.50;3.40;;;14.10;99.90;;;;;;5035739;28;20620;-81
2022/07/07 01:15:04;;;;;;;6.00;3.53;;;14.10;99.90;;;;;;5035257;28;20215;-81
2022/07/07 01:17:31;;;;;;;3.40;3.10;;;14.20;99.90;;;;;;5022951;28;20246;-81
2022/07/07 01:19:59;;;;;;;4.60;3.57;;;14.10;99.90;;;;;;5036597;28;20669;-81
2022/07/07 01:22:29;;;;;;;3.57;3.27;;;14.10;99.90;;;;;;5036311;28;20220;-81
2022/07/07 01:24:57;;;;;;;4.60;3.50;;;14.00;99.90;;;;;;5036909;28;20196;-81
2022/07/07 01:27:24;;;;;;;4.53;3.30;;;14.00;99.90;;;;;;5031458;28;20629;-81
2022/07/07 01:29:53;;;;;;;3.80;3.30;;;14.00;99.90;;;;;;5024861;28;20197;-81
2022/07/07 01:32:21;;;;;;;5.17;3.30;;;14.00;99.90;;;;;;5028566;28;20192;-81
2022/07/07 01:34:49;;;;;;;3.40;3.00;;;14.00;99.90;;;;;;5025998;28;20205;-81
2022/07/07 01:37:16;;;;;;;3.53;2.93;;;13.90;99.90;;;;;;5036288;28;20419;-80
2022/07/07 01:39:43;;;;;;;3.93;3.10;;;14.00;99.90;;;;;;5031587;28;20201;-81
2022/07/07 01:42:12;;;;;;;3.20;2.90;;;14.00;99.90;;;;;;5015833;28;20220;-81
2022/07/07 01:44:41;;;;;;;3.47;3.17;;;14.00;99.90;;;;;;5033006;28;20314;-80
2022/07/07 01:47:09;;;;;;;3.00;2.70;;;14.10;99.90;;;;;;5027129;28;20204;-81
2022/07/07 01:49:36;;;;;;;4.23;3.03;;;14.10;99.90;;;;;;5027441;28;20188;-81
2022/07/07 01:52:04;;;;;;;3.10;2.80;;;14.10;99.90;;;;;;5031432;28;20363;-81
2022/07/07 01:54:32;;;;;;;4.23;3.50;;;14.20;99.90;;;;;;5030732;28;20275;-81
2022/07/07 01:56:59;;;;;;;4.30;3.00;;;14.20;99.90;;;;;;5027414;28;20262;-80
2022/07/07 01:59:28;;;;;;;3.73;3.23;;;14.10;99.90;;;;;;5036767;28;20200;-81
2022/07/07 02:01:55;;;;;;;3.13;2.83;;;14.10;99.90;;;;;;5023123;28;20310;-81
2022/07/07 02:04:22;;;;;;;4.93;3.40;;;14.10;99.90;;;;;;5033655;28;20220;-81
2022/07/07 02:06:49;;;;;;;2.57;2.40;;;14.10;99.90;;;;;;5027335;28;20223;-81
2022/07/07 02:09:15;;;;;;;2.63;2.43;;;14.10;99.90;;;;;;5036756;28;20199;-82
2022/07/07 02:11:42;;;;;;;2.90;2.70;;;14.10;99.90;;;;;;5034248;28;20211;-81
2022/07/07 02:14:09;;;;;;;3.30;3.00;;;14.10;99.90;;;;;;5034543;28;20224;-81
2022/07/07 02:16:37;;;;;;;3.17;2.70;;;14.10;99.90;;;;;;5021271;28;20259;-81
2022/07/07 02:19:06;;;;;;;4.53;3.13;;;14.00;99.90;;;;;;5017409;28;20246;-81
2022/07/07 02:21:34;;;;;;;3.37;3.07;;;14.00;99.90;;;;;;5016329;28;20272;-81
2022/07/07 02:24:01;;;;;;;4.40;3.20;;;14.00;99.90;;;;;;4999743;28;20228;-81
2022/07/07 02:26:29;;;;;;;3.70;3.33;;;13.90;99.90;;;;;;4999805;28;20205;-81
2022/07/07 02:28:57;;;;;;;3.80;3.37;;;13.80;99.90;;;;;;5016329;28;20211;-81
2022/07/07 02:31:24;;;;;;;3.67;3.23;;;13.80;99.90;;;;;;5020480;28;20196;-81
2022/07/07 02:33:52;;;;;;;3.43;3.13;;;13.80;99.90;;;;;;5023705;28;20222;-81
2022/07/07 02:36:19;;;;;;;3.43;3.13;;;13.80;99.90;;;;;;5011379;28;20192;-81
2022/07/07 02:38:48;;;;;;;3.40;3.00;;;13.80;99.90;;;;;;5027580;28;20299;-81
2022/07/07 02:41:15;;;;;;;3.43;3.10;;;13.70;99.90;;;;;;5030682;28;20196;-81
2022/07/07 02:43:41;;;;;;;5.00;2.90;;;13.70;99.90;;;;;;5035863;28;20212;-81
2022/07/07 02:46:08;;;;;;;3.77;2.93;;;13.70;99.90;;;;;;5036733;28;20245;-85
2022/07/07 02:48:35;;;;;;;3.13;2.83;;;13.70;99.90;;;;;;5050625;28;20635;-82
2022/07/07 02:51:03;;;;;;;4.87;3.10;;;13.70;99.90;;;;;;5036653;28;20200;-82
2022/07/07 02:53:30;;;;;;;4.87;3.37;;;13.80;99.90;;;;;;5035729;28;20208;-82
2022/07/07 02:55:58;;;;;;;3.10;2.90;;;13.70;99.90;;;;;;5034169;28;20261;-83
2022/07/07 02:58:25;;;;;;;6.83;3.10;;;13.70;99.90;;;;;;5037351;28;20226;-82
2022/07/07 03:00:54;;;;;;;4.60;3.40;;;13.70;99.90;;;;;;5035133;28;20206;-76
2022/07/07 03:03:21;;;;;;;3.23;2.70;;;13.70;99.90;;;;;;5028568;28;20223;-80
2022/07/07 03:05:48;;;;;;;3.27;2.90;;;13.70;99.90;;;;;;5031889;28;20196;-80
2022/07/07 03:08:16;;;;;;;3.43;2.70;;;13.70;99.90;;;;;;5035131;28;20246;-80
2022/07/07 03:10:43;;;;;;;3.50;3.20;;;13.80;99.90;;;;;;5028976;28;20263;-79
2022/07/07 03:13:10;;;;;;;4.70;3.40;;;13.80;99.90;;;;;;5019033;28;20300;-80
2022/07/07 03:15:37;;;;;;;3.67;2.83;;;13.80;99.90;;;;;;5037803;28;20621;-80
2022/07/07 03:18:04;;;;;;;3.33;2.93;;;13.80;99.90;;;;;;5027903;28;20338;-79
2022/07/07 03:20:31;;;;;;;3.30;3.00;;;13.80;99.90;;;;;;5020834;28;20281;-80
2022/07/07 03:22:57;;;;;;;4.00;3.10;;;13.80;99.90;;;;;;5037065;28;20215;-81
2022/07/07 03:25:26;;;;;;;3.10;2.80;;;13.80;99.90;;;;;;5053144;28;20195;-80
2022/07/07 03:27:53;;;;;;;2.97;2.70;;;13.80;99.90;;;;;;5048171;28;20195;-79
2022/07/07 03:30:19;;;;;;;4.57;2.97;;;13.80;99.90;;;;;;5048002;28;20242;-79
2022/07/07 03:32:46;;;;;;;4.57;2.63;;;13.80;99.90;;;;;;5040063;28;20236;-83
2022/07/07 03:35:13;;;;;;;3.87;2.90;;;13.80;99.90;;;;;;5032524;28;20243;-79
2022/07/07 03:37:40;;;;;;;2.70;2.50;;;13.90;99.90;;;;;;5031774;28;20294;-77
2022/07/07 03:40:07;;;;;;;4.17;3.17;;;13.90;99.90;;;;;;5025694;28;20219;-80
2022/07/07 03:42:37;;;;;;;3.27;2.97;;;13.90;99.90;;;;;;5011230;28;20273;-80
2022/07/07 03:45:05;;;;;;;4.53;2.80;;;13.90;99.90;;;;;;5034469;28;20625;-80
2022/07/07 03:47:32;;;;;;;3.97;3.27;;;13.80;99.90;;;;;;5026025;28;20191;-80
2022/07/07 03:49:59;;;;;;;3.30;2.53;;;13.80;99.90;;;;;;5032592;28;20200;-80
2022/07/07 03:52:25;;;;;;;3.37;2.63;;;13.80;99.90;;;;;;5030981;28;20726;-80
2022/07/07 03:54:52;;;;;;;2.80;2.60;;;13.80;99.90;;;;;;5032167;28;20197;-80
2022/07/07 03:57:19;;;;;;;2.90;2.70;;;13.80;99.90;;;;;;5011344;28;20200;-80
2022/07/07 03:59:47;;;;;;;2.97;2.60;;;13.90;99.90;;;;;;5037307;28;20203;-80
2022/07/07 04:02:14;;;;;;;3.83;2.70;;;14.00;99.90;;;;;;5036054;28;20758;-80
2022/07/07 04:04:40;;;;;;;3.00;2.80;;;14.10;99.90;;;;;;5018426;28;20226;-80
2022/07/07 04:07:07;;;;;;;2.97;2.77;;;14.10;99.90;;;;;;5037582;28;20204;-80
2022/07/07 04:09:34;;;;;;;2.73;2.50;;;14.20;99.90;;;;;;5029232;28;20726;-80
2022/07/07 04:12:01;;;;;;;3.47;3.00;;;14.20;99.90;;;;;;5033304;28;20203;-81
2022/07/07 04:14:28;;;;;;;3.50;2.80;;;14.20;99.90;;;;;;5031137;28;20215;-80
2022/07/07 04:16:57;;;;;;;3.40;3.10;;;14.30;99.90;;;;;;5033538;28;20514;-80
2022/07/07 04:19:24;;;;;;;3.60;3.07;;;14.30;99.90;;;;;;5034756;28;20192;-80
2022/07/07 04:21:50;;;;;;;2.83;2.53;;;14.40;99.90;;;;;;5024106;28;20308;-80
2022/07/07 04:24:17;;;;;;;3.33;2.83;;;14.30;99.90;;;;;;5017905;28;20254;-80
2022/07/07 04:26:44;;;;;;;3.10;2.80;;;14.30;99.90;;;;;;5035458;28;20208;-80
2022/07/07 04:29:11;;;;;;;3.17;2.97;;;14.30;99.90;;;;;;5027898;28;20200;-79
2022/07/07 04:31:43;;;;;;;4.03;2.80;;;14.30;99.90;;;;;;5033568;28;20196;-82
2022/07/07 04:34:12;;;;;;;3.50;2.80;;;14.30;99.90;;;;;;5030782;28;20253;-81
2022/07/07 04:36:39;;;;;;;3.03;2.73;;;14.30;99.90;;;;;;5039585;28;20205;-81
2022/07/07 04:39:05;;;;;;;3.43;2.90;;;14.30;99.90;;;;;;5017739;28;20204;-81
2022/07/07 04:41:32;;;;;;;3.53;2.60;;;14.30;99.90;;;;;;5038193;28;20196;-81
2022/07/07 04:43:59;;;;;;;2.77;2.57;;;14.30;99.90;;;;;;5020114;28;20231;-81
2022/07/07 04:46:26;;;;;;;2.90;2.70;;;14.30;99.90;;;;;;5031110;28;20234;-81
2022/07/07 04:48:53;;;;;;;2.90;2.70;;;14.30;99.90;;;;;;5035869;28;20188;-81
2022/07/07 04:51:22;;;;;;;2.97;2.70;;;14.30;99.90;;;;;;5037691;28;20653;-81
2022/07/07 04:53:49;;;;;;;2.80;2.53;;;14.30;99.90;;;;;;5032807;28;20213;-81
2022/07/07 04:56:16;;;;;;;3.00;2.70;;;14.40;99.90;;;;;;5013162;28;20212;-81
2022/07/07 04:58:43;;;;;;;3.00;2.73;;;14.40;99.90;;;;;;5024062;28;20212;-82
2022/07/07 05:01:09;;;;;;;2.80;2.60;;;14.50;99.90;;;;;;5008993;28;20614;-82
2022/07/07 05:03:36;;;;;;;3.03;2.77;;;14.60;99.90;;;;;;5018079;28;20217;-82
2022/07/07 05:06:03;;;;;;;3.13;2.70;;;14.70;99.90;;;;;;5012972;28;20220;-81
2022/07/07 05:08:31;;;;;;;4.40;3.10;;;14.70;99.90;;;;;;5024281;28;20202;-81
2022/07/07 05:10:59;;;;;;;2.93;2.50;;;14.80;99.90;;;;;;5023287;28;20250;-80
2022/07/07 05:13:26;;;;;;;2.63;2.43;;;14.80;99.90;;;;;;5041109;28;20222;-81
2022/07/07 05:15:52;;;;;;;5.13;2.73;;;14.90;99.90;;;;;;5042100;28;20201;-81
2022/07/07 05:18:19;;;;;;;3.53;2.67;;;14.90;99.90;;;;;;5033881;28;20195;-81
2022/07/07 05:20:46;;;;;;;2.87;2.67;;;14.90;99.90;;;;;;5031381;28;20556;-82
2022/07/07 05:23:13;;;;;;;3.30;2.87;;;14.90;99.90;;;;;;5015623;28;20225;-82
2022/07/07 05:25:41;;;;;;;4.47;2.70;;;14.90;99.90;;;;;;5020556;28;20194;-82
2022/07/07 05:28:08;;;;;;;3.80;2.67;;;15.10;99.90;;;;;;5020970;28;20613;-81
2022/07/07 05:30:34;;;;;;;5.33;2.77;;;15.50;99.90;;;;;;5037336;28;20219;-82
2022/07/07 05:33:01;;;;;;;2.63;2.43;;;16.00;99.90;;;;;;5031723;28;20243;-82
2022/07/07 05:35:28;;;;;;;2.80;2.60;;;16.10;99.90;;;;;;5039515;28;20275;-82
2022/07/07 05:37:55;;;;;;;2.93;2.70;;;16.20;99.90;;;;;;5040417;28;20733;-81
2022/07/07 05:40:22;;;;;;;2.50;2.30;;;16.30;99.90;;;;;;5035535;28;20620;-82
2022/07/07 05:42:50;;;;;;;5.43;3.17;;;16.60;99.90;;;;;;5021951;28;20262;-82
2022/07/07 05:45:17;;;;;;;4.33;2.90;;;16.70;99.90;;;;;;5038667;28;20716;-81
2022/07/07 05:47:44;;;;;;;2.80;2.60;;;16.60;99.90;;;;;;5035573;28;20206;-80
2022/07/07 05:50:11;;;;;;;2.73;2.50;;;16.50;99.90;;;;;;5039638;28;20213;-80
2022/07/07 05:52:38;;;;;;;2.50;2.30;;;16.50;99.90;;;;;;5035089;28;20601;-80
2022/07/07 05:55:07;;;;;;;2.77;2.30;;;16.40;99.90;;;;;;5033401;28;20228;-80
2022/07/07 05:57:34;;;;;;;2.70;2.37;;;16.40;99.90;;;;;;5041809;28;20222;-80
2022/07/07 06:00:02;;;;;;;3.47;2.90;;;16.60;99.90;;;;;;5046240;28;20193;-80
2022/07/07 06:02:38;;;;;;;4.03;2.63;;;17.10;99.90;;;;;;5039274;28;20209;-81
2022/07/07 06:05:06;;;;;;;3.27;2.70;;;17.30;99.90;;;;;;5036871;28;20231;-80
2022/07/07 06:07:33;;;;;;;3.83;2.90;;;17.40;99.90;;;;;;5037303;28;20274;-80
2022/07/07 06:10:00;;;;;;;2.90;2.53;;;17.80;99.90;;;;;;5029551;28;20217;-81
2022/07/07 06:12:27;;;;;;;4.50;3.00;;;18.40;99.90;;;;;;5031975;28;20203;-81
2022/07/07 06:14:53;;;;;;;2.90;2.60;;;18.80;99.90;;;;;;5026697;28;20637;-80
2022/07/07 06:17:22;;;;;;;2.83;2.40;;;19.00;99.90;;;;;;5030168;28;20192;-82
2022/07/07 06:19:48;;;;;;;3.60;2.30;;;19.20;99.90;;;;;;5038656;28;20196;-83
2022/07/07 06:22:15;;;;;;;2.83;2.60;;;19.10;99.90;;;;;;5019790;28;20564;-83
2022/07/07 06:24:42;;;;;;;3.50;2.60;;;19.00;99.90;;;;;;5039181;28;20562;-82
2022/07/07 06:27:09;;;;;;;2.53;2.20;;;19.00;99.90;;;;;;5034750;28;20636;-82
2022/07/07 06:29:35;;;;;;;4.17;2.80;;;19.10;99.90;;;;;;5031912;28;20201;-82
2022/07/07 06:32:03;;;;;;;3.27;2.60;;;19.30;99.90;;;;;;5027144;28;20206;-82
2022/07/07 06:34:31;;;;;;;3.53;2.57;;;19.40;99.90;;;;;;5038261;28;20267;-82
2022/07/07 06:36:58;;;;;;;6.00;2.77;;;19.50;99.90;;;;;;5035062;28;20684;-82
2022/07/07 06:39:25;;;;;;;3.60;2.70;;;19.40;99.90;;;;;;5033815;28;20207;-82
2022/07/07 06:41:52;;;;;;;3.37;2.53;;;19.40;99.90;;;;;;5039587;28;20279;-82
2022/07/07 06:44:19;;;;;;;3.60;2.60;;;19.50;99.90;;;;;;5037165;28;20222;-82
2022/07/07 06:46:46;;;;;;;3.43;2.50;;;20.20;99.90;;;;;;5040665;28;20562;-83
2022/07/07 06:49:13;;;;;;;3.10;2.80;;;20.40;99.90;;;;;;5037089;28;20667;-82
2022/07/07 06:51:41;;;;;;;4.13;2.47;;;20.20;99.90;;;;;;5037442;28;20195;-82
2022/07/07 06:54:09;;;;;;;2.87;2.60;;;20.20;99.90;;;;;;5038981;28;20261;-82
2022/07/07 06:56:36;;;;;;;3.40;2.63;;;20.90;99.90;;;;;;5039425;28;20191;-82
2022/07/07 06:59:03;;;;;;;3.50;2.40;;;21.60;99.90;;;;;;5040062;28;20210;-82
2022/07/07 07:01:30;;;;;;;3.60;3.40;;;22.10;99.90;;;;;;5035792;28;20221;-82
2022/07/07 07:03:57;;;;;;;4.13;3.73;;;22.40;99.90;;;;;;5028036;28;20234;-84
2022/07/07 07:06:25;;;;;;;2.73;2.50;;;22.90;99.90;;;;;;5031082;28;20203;-83
2022/07/07 07:08:53;;;;;;;3.40;3.10;;;23.60;99.90;;;;;;5035201;28;20200;-83
2022/07/07 07:11:20;;;;;;;4.30;4.00;;;24.10;99.90;;;;;;5032078;28;20196;-83
2022/07/07 07:13:47;;;;;;;4.43;4.03;;;24.40;99.90;;;;;;5033312;28;20221;-83
2022/07/07 07:16:14;;;;;;;6.70;5.07;;;24.80;99.90;;;;;;5013164;28;20733;-83
2022/07/07 07:18:41;;;;;;;5.00;4.60;;;25.30;99.90;;;;;;5039211;28;20204;-83
2022/07/07 07:21:08;;;;;;;5.30;4.87;;;25.80;99.80;;;;;;5026620;28;20204;-83
2022/07/07 07:23:35;;;;;;;4.10;3.70;;;26.20;99.90;;;;;;5019326;28;20289;-82
2022/07/07 07:26:03;;;;;;;5.00;4.50;;;26.00;99.00;;;;;;5020116;28;20208;-82
2022/07/07 07:28:30;;;;;;;4.57;4.20;;;25.80;99.20;;;;;;5034253;28;20679;-83
2022/07/07 07:30:56;;;;;;;5.10;4.70;;;25.70;98.50;;;;;;5028413;28;20630;-82
2022/07/07 07:33:24;;;;;;;6.50;6.00;;;25.50;98.90;;;;;;5031233;28;20213;-82
2022/07/07 07:35:50;;;;;;;5.57;5.07;;;25.40;98.70;;;;;;5026973;28;20247;-82
2022/07/07 07:38:17;;;;;;;6.20;5.70;;;25.00;99.90;;;;;;5038469;28;20605;-82
2022/07/07 07:40:44;;;;;;;6.00;5.60;;;24.40;99.70;;;;;;5033571;28;20205;-82
2022/07/07 07:43:12;;;;;;;6.60;6.00;;;23.80;99.90;;;;;;5020528;28;20219;-82
2022/07/07 07:45:39;;;;;;;7.37;6.70;;;23.40;99.90;;;;;;5034988;28;20234;-83
2022/07/07 07:48:06;;;;;;;6.83;6.33;;;23.30;99.90;;;;;;5033462;28;20246;-82
2022/07/07 07:50:33;;;;;;;8.13;7.53;;;23.30;99.90;;;;;;5012010;28;20196;-82
2022/07/07 07:53:04;;;;;;;6.80;6.30;;;23.60;99.90;;;;;;5017660;28;20311;-83
2022/07/07 07:55:31;;;;;;;5.63;4.93;;;23.50;99.90;;;;;;5021190;28;20199;-82
2022/07/07 08:02:39;;;;;;;;;;;;;;;;;;;;;
2022/07/07 08:06:33;;;;;;;;;;;;;;;;;;;;;
2022/07/07 08:18:27;;;;;;;7.20;6.60;;;22.60;99.90;;;;;;5031647;28;20759;-82
2022/07/07 08:29:02;;;;;;;6.60;6.07;;;22.60;99.90;;;;;;4969118;28;20210;-82
2022/07/07 08:38:54;;;;;;;6.87;6.43;;;22.40;99.90;;;;;;4910211;28;20279;-81
2022/07/07 08:41:58;;;;;;;6.43;5.93;;;22.20;99.90;;;;;;5002976;28;20200;-83
2022/07/07 08:56:35;;;;;;;5.17;4.80;;;24.40;99.90;;;;;;4873593;29;20783;-81
2022/07/07 09:11:33;;;;;;;6.20;5.70;;;23.60;99.90;;;;;;4895128;29;20290;-82
2022/07/07 09:18:21;;;;;;;6.20;5.80;;;22.20;99.90;;;;;;4896363;29;20208;-82
2022/07/07 09:21:30;;;;;;;7.10;6.53;;;22.00;99.90;;;;;;4880144;29;20246;-82
2022/07/07 09:28:06;;;;;;;6.10;5.70;;;22.80;99.90;;;;;;4794379;29;20218;-81
2022/07/07 09:31:07;;;;;;;5.80;5.30;;;23.80;99.90;;;;;;4803706;29;20223;-81
2022/07/07 09:38:43;;;;;;;6.87;6.37;;;24.20;99.90;;;;;;4864785;29;20755;-82
2022/07/07 10:24:45;;;;;;;3.43;3.00;;;21.90;99.90;;;;;;4948202;28;20233;-81
2022/07/07 10:36:44;;;;;;;6.47;5.80;;;22.00;99.90;;;;;;4857764;29;20214;-82
2022/07/07 11:07:39;;;;;;;6.20;5.70;;;22.80;99.90;;;;;;4850358;29;20240;-81
2022/07/07 11:10:27;;;;;;;5.90;5.40;;;23.30;99.90;;;;;;4895672;29;20232;-81
2022/07/07 11:16:19;;;;;;;5.70;5.30;;;23.90;99.90;;;;;;5009691;28;20223;-81
2022/07/07 11:18:50;;;;;;;6.20;5.80;;;24.00;99.90;;;;;;5012805;28;20203;-81
2022/07/07 11:21:18;;;;;;;5.60;5.20;;;24.00;99.90;;;;;;5031718;28;20724;-81
2022/07/07 11:23:52;;;;;;;7.17;6.60;;;23.80;99.90;;;;;;5030767;28;20243;-81
2022/07/07 11:26:22;;;;;;;5.50;5.10;;;23.50;99.90;;;;;;5012877;28;20200;-81
2022/07/07 11:28:50;;;;;;;6.17;5.77;;;23.30;99.90;;;;;;5031413;28;20200;-81
2022/07/07 11:31:19;;;;;;;6.30;5.90;;;23.10;99.90;;;;;;5031215;28;20665;-82
2022/07/07 11:33:51;;;;;;;5.83;5.37;;;22.80;99.90;;;;;;5012791;28;20228;-81
2022/07/07 11:36:19;;;;;;;2.70;2.10;;;22.60;99.90;;;;;;5029086;28;20200;-81
2022/07/07 11:38:48;;;;;;;5.50;2.90;;;22.40;99.90;;;;;;5030995;28;20207;-81
2022/07/07 11:41:15;;;;;;;6.30;5.70;;;22.20;99.90;;;;;;5014083;28;20205;-81
2022/07/07 11:43:43;;;;;;;6.80;6.20;;;22.00;99.90;;;;;;5012989;28;20714;-81
2022/07/07 11:46:10;;;;;;;5.93;5.47;;;22.00;99.90;;;;;;5013086;28;20195;-80
2022/07/07 11:48:41;;;;;;;2.60;2.40;;;21.80;99.90;;;;;;5030758;28;20249;-81
2022/07/07 11:51:08;;;;;;;4.10;3.80;;;21.80;99.90;;;;;;5030311;28;20313;-81
2022/07/07 11:53:36;;;;;;;4.03;2.80;;;21.70;99.90;;;;;;5029131;28;20606;-81
2022/07/07 11:56:03;;;;;;;5.47;5.07;;;21.60;99.90;;;;;;5011982;28;20865;-80
2022/07/07 11:58:30;;;;;;;6.67;6.17;;;21.40;99.90;;;;;;5031881;28;21032;-81
2022/07/07 12:00:57;;;;;;;5.90;5.50;;;21.30;99.90;;;;;;5013266;28;20223;-81
2022/07/07 12:03:35;;;;;;;2.07;1.97;;;21.20;99.90;;;;;;5030726;28;20216;-81
2022/07/07 12:06:04;;;;;;;2.97;2.77;;;21.20;99.90;;;;;;5030217;28;20223;-81
2022/07/07 12:08:37;;;;;;;2.40;2.30;;;21.10;99.90;;;;;;5029576;28;20300;-82
2022/07/07 12:11:05;;;;;;;2.80;2.57;;;21.20;99.90;;;;;;5029814;28;20223;-81
2022/07/07 12:13:32;;;;;;;3.43;3.23;;;21.30;99.90;;;;;;5012715;28;20212;-82
2022/07/07 12:16:03;;;;;;;3.33;2.97;;;21.60;99.90;;;;;;5029011;28;20203;-80
2022/07/07 12:18:37;;;;;;;3.30;3.00;;;21.70;99.90;;;;;;5014345;28;20676;-81
2022/07/07 12:21:07;;;;;;;2.80;2.60;;;21.60;99.90;;;;;;5035911;28;20229;-82
2022/07/07 12:23:40;;;;;;;2.70;2.50;;;21.60;99.90;;;;;;5035342;28;20721;-81
2022/07/07 12:26:21;;;;;;;4.57;2.47;;;21.50;99.90;;;;;;5017872;28;20215;-83
2022/07/07 12:36:36;;;;;;;3.00;2.70;;;21.30;99.90;;;;;;4970076;28;20249;-81
2022/07/07 12:39:04;;;;;;;3.73;3.43;;;21.10;99.90;;;;;;5036456;28;20195;-81
2022/07/07 12:41:33;;;;;;;3.80;3.50;;;21.00;99.90;;;;;;5018118;28;20210;-81
2022/07/07 12:44:16;;;;;;;4.40;4.10;;;21.10;99.90;;;;;;5034039;28;20234;-80
2022/07/07 12:46:44;;;;;;;4.00;3.60;;;21.10;99.90;;;;;;5018549;28;20674;-81
2022/07/07 12:49:12;;;;;;;4.10;3.80;;;21.10;99.90;;;;;;5033475;28;20266;-82
2022/07/07 12:51:42;;;;;;;4.73;4.43;;;21.10;99.90;;;;;;5042113;28;20191;-84
2022/07/07 12:54:20;;;;;;;4.80;4.50;;;21.20;99.90;;;;;;5026845;28;20595;-82
2022/07/07 12:56:47;;;;;;;4.60;4.30;;;21.20;99.90;;;;;;5032896;28;20199;-84
2022/07/07 12:59:21;;;;;;;4.70;4.30;;;21.20;99.90;;;;;;5030578;28;20204;-82
2022/07/07 13:01:51;;;;;;;4.50;4.20;;;21.30;99.90;;;;;;5033899;28;20200;-83
2022/07/07 13:04:19;;;;;;;4.13;3.73;;;21.20;99.90;;;;;;5039731;28;20222;-82
2022/07/07 13:06:48;;;;;;;4.00;3.70;;;21.20;99.90;;;;;;5028893;28;20204;-84
2022/07/07 13:09:15;;;;;;;4.20;3.80;;;21.10;99.90;;;;;;5024626;28;20660;-81
2022/07/07 13:11:42;;;;;;;3.50;3.30;;;21.20;99.90;;;;;;5023916;28;20646;-81
2022/07/07 13:14:10;;;;;;;4.40;4.10;;;21.30;99.90;;;;;;5041543;28;20212;-81
2022/07/07 13:16:37;;;;;;;3.83;3.53;;;21.30;99.90;;;;;;5036486;28;20624;-81
2022/07/07 13:19:05;;;;;;;3.20;3.00;;;21.40;99.90;;;;;;5032406;28;20203;-81
2022/07/07 13:21:31;;;;;;;4.07;3.77;;;21.40;99.90;;;;;;5038435;28;20192;-81
2022/07/07 13:24:00;;;;;;;4.07;3.77;;;21.40;99.90;;;;;;5011783;28;20223;-82
2022/07/07 13:26:27;;;;;;;3.73;3.43;;;21.40;99.90;;;;;;5023805;28;20746;-81
2022/07/07 13:28:53;;;;;;;4.07;3.77;;;21.50;99.90;;;;;;5038976;28;20207;-81
2022/07/07 13:31:20;;;;;;;3.20;2.90;;;21.60;99.90;;;;;;5037067;28;20633;-81
2022/07/07 13:33:47;;;;;;;2.30;2.20;;;21.90;99.90;;;;;;5040650;28;20212;-81
2022/07/07 13:36:14;;;;;;;2.90;2.70;;;22.10;99.90;;;;;;5037995;28;20192;-81
2022/07/07 13:38:41;;;;;;;4.60;4.30;;;22.30;99.90;;;;;;5026548;28;20556;-82
2022/07/07 13:41:10;;;;;;;4.43;4.10;;;22.50;99.90;;;;;;5029693;28;20199;-81
2022/07/07 13:43:37;;;;;;;5.70;5.20;;;22.80;99.90;;;;;;5017397;28;20216;-83
2022/07/07 13:46:04;;;;;;;5.13;4.63;;;23.10;99.90;;;;;;5020150;28;20271;-81
2022/07/07 13:48:31;;;;;;;6.00;5.40;;;23.10;99.90;;;;;;5037666;28;20323;-81
2022/07/07 13:50:58;;;;;;;6.10;5.60;;;23.10;99.90;;;;;;5033553;28;20207;-81
2022/07/07 13:53:24;;;;;;;5.30;4.80;;;23.10;99.90;;;;;;5034106;28;20631;-82
2022/07/07 13:55:51;;;;;;;5.77;5.47;;;23.10;99.90;;;;;;5022637;28;20196;-82
2022/07/07 13:58:19;;;;;;;6.40;5.70;;;23.20;99.90;;;;;;5027248;28;20212;-83
2022/07/07 14:00:47;;;;;;;5.80;5.20;;;23.20;99.90;;;;;;5018127;28;20200;-78
2022/07/07 14:03:15;;;;;;;6.07;5.60;;;23.20;99.90;;;;;;5029443;28;20254;-81
2022/07/07 14:05:42;;;;;;;5.30;4.80;;;23.30;99.90;;;;;;5016425;28;20219;-82
2022/07/07 14:08:08;;;;;;;7.27;5.77;;;23.40;99.90;;;;;;5011180;28;20558;-82
2022/07/07 14:10:35;;;;;;;6.50;5.90;;;23.30;99.90;;;;;;5020666;28;20207;-82
2022/07/07 14:13:02;;;;;;;5.30;5.00;;;23.20;99.90;;;;;;5029831;28;20231;-82
2022/07/07 14:15:30;;;;;;;6.10;5.70;;;23.20;99.90;;;;;;5048518;28;20645;-82
2022/07/07 14:17:57;;;;;;;5.73;5.33;;;23.20;99.90;;;;;;5014807;28;20762;-80
2022/07/07 14:20:24;;;;;;;5.80;5.40;;;23.00;99.90;;;;;;5034982;28;20198;-83
2022/07/07 14:22:51;;;;;;;8.73;5.60;;;22.90;99.90;;;;;;5028119;28;20790;-81
2022/07/07 14:25:18;;;;;;;5.97;5.57;;;23.00;99.90;;;;;;5033475;28;20612;-82
2022/07/07 14:27:45;;;;;;;6.17;5.77;;;22.90;99.90;;;;;;5037271;28;20234;-84
2022/07/07 14:30:12;;;;;;;5.33;5.03;;;22.90;99.90;;;;;;5017049;28;20281;-82
2022/07/07 14:32:40;;;;;;;6.40;5.80;;;22.80;99.90;;;;;;5031509;28;20201;-83
2022/07/07 14:35:08;;;;;;;6.40;5.90;;;22.70;99.90;;;;;;5016396;28;20193;-82
2022/07/07 14:37:35;;;;;;;6.47;5.97;;;22.50;99.90;;;;;;5031322;28;20263;-82
2022/07/07 14:40:01;;;;;;;6.23;5.83;;;22.40;99.90;;;;;;5032301;28;20200;-82
2022/07/07 14:42:28;;;;;;;6.00;5.50;;;22.20;99.90;;;;;;5030419;28;20259;-83
2022/07/07 14:44:55;;;;;;;6.20;5.70;;;22.00;99.90;;;;;;5032317;28;20261;-83
2022/07/07 14:47:22;;;;;;;6.20;5.80;;;21.80;99.90;;;;;;5015330;28;20268;-84
2022/07/07 14:49:50;;;;;;;2.63;2.40;;;21.80;99.90;;;;;;5040936;28;20265;-83
2022/07/07 14:52:17;;;;;;;6.40;4.53;;;21.70;99.90;;;;;;5034700;28;20308;-82
2022/07/07 14:54:44;;;;;;;5.70;5.40;;;21.50;99.90;;;;;;5041695;28;20591;-84
2022/07/07 14:57:11;;;;;;;6.47;5.97;;;21.40;99.90;;;;;;5045003;28;20208;-83
2022/07/07 14:59:37;;;;;;;3.10;2.20;;;21.40;99.90;;;;;;5030759;28;20248;-82
2022/07/07 15:02:05;;;;;;;2.37;2.17;;;21.60;99.90;;;;;;5016422;28;20232;-82
2022/07/07 15:04:32;;;;;;;2.50;2.30;;;21.70;99.90;;;;;;5030931;28;20220;-82
2022/07/07 15:07:00;;;;;;;5.83;2.10;;;21.80;99.90;;;;;;5037120;28;20219;-83
2022/07/07 15:09:27;;;;;;;2.47;2.27;;;21.90;99.90;;;;;;5035359;28;20672;-82
2022/07/07 15:11:55;;;;;;;2.40;1.90;;;22.00;99.90;;;;;;5037571;28;20188;-82
2022/07/07 15:14:22;;;;;;;5.40;5.10;;;22.10;99.90;;;;;;5035497;28;20894;-83
2022/07/07 15:16:49;;;;;;;5.10;4.80;;;22.10;99.90;;;;;;5018487;28;20268;-83
2022/07/07 15:19:16;;;;;;;6.00;5.50;;;22.00;99.90;;;;;;5032519;28;20204;-77
2022/07/07 15:21:43;;;;;;;5.90;5.50;;;21.60;99.90;;;;;;5027865;28;20732;-82
2022/07/07 15:24:12;;;;;;;5.17;4.73;;;21.30;99.90;;;;;;5026184;28;20287;-81
2022/07/07 15:26:40;;;;;;;5.93;5.53;;;20.90;99.90;;;;;;5027528;28;20222;-80
2022/07/07 15:29:07;;;;;;;2.80;2.10;;;20.50;99.90;;;;;;5027178;28;20206;-80
2022/07/07 15:31:33;;;;;;;6.53;6.03;;;20.10;99.90;;;;;;5034633;28;20251;-80
2022/07/07 15:34:00;;;;;;;6.50;5.93;;;19.90;99.90;;;;;;5013975;28;20236;-81